Time;durP1;ratioP1;P1;durP2;ratioP2;P2;SDS_P1;SDS_P2;PMS_P1;PMS_P2;Temp;Humidity;BMP_temperature;BMP_pressure;BME280_temperature;BME280_humidity;BME280_pressure;Samples;Min_cycle;Max_cycle;Signal;HPM_P1;HPM_P2
2022/09/23 00:00:28;;;;;;;11.23;8.02;;;10.40;99.90;;;;;;6158801;23;20017;-88
2022/09/23 00:02:54;;;;;;;14.77;8.68;;;10.40;99.90;;;;;;6199854;23;20025;-88
2022/09/23 00:05:20;;;;;;;10.60;8.13;;;10.30;99.90;;;;;;6119731;23;20017;-88
2022/09/23 00:07:45;;;;;;;11.82;8.23;;;10.30;99.90;;;;;;6192877;23;20083;-88
2022/09/23 00:10:13;;;;;;;12.43;8.70;;;10.30;99.90;;;;;;6146508;23;20021;-88
2022/09/23 00:12:39;;;;;;;11.13;8.98;;;10.30;99.90;;;;;;6170333;23;20021;-88
2022/09/23 00:15:05;;;;;;;12.43;8.30;;;10.20;99.90;;;;;;6146473;23;20036;-88
2022/09/23 00:17:31;;;;;;;12.18;8.60;;;10.30;99.90;;;;;;6145052;23;20017;-88
2022/09/23 00:19:57;;;;;;;12.07;8.80;;;10.30;99.90;;;;;;6195162;23;20017;-89
2022/09/23 00:22:22;;;;;;;12.25;9.23;;;10.20;99.90;;;;;;6121249;23;20024;-88
2022/09/23 00:24:48;;;;;;;14.95;9.80;;;10.20;99.90;;;;;;6194269;23;20017;-88
2022/09/23 00:27:14;;;;;;;11.43;9.43;;;10.20;99.90;;;;;;6147517;23;20052;-87
2022/09/23 00:29:40;;;;;;;10.55;9.02;;;10.20;99.90;;;;;;6147394;23;20032;-89
2022/09/23 00:32:05;;;;;;;11.38;8.90;;;10.10;99.90;;;;;;6145839;23;20035;-88
2022/09/23 00:34:31;;;;;;;10.30;8.65;;;10.20;99.90;;;;;;6147811;23;20064;-88
2022/09/23 00:36:57;;;;;;;13.40;9.98;;;10.10;99.90;;;;;;6171672;23;20024;-88
2022/09/23 00:39:24;;;;;;;11.68;9.23;;;10.10;99.90;;;;;;6196672;23;20417;-87
2022/09/23 00:41:51;;;;;;;12.90;9.75;;;10.10;99.90;;;;;;6171392;23;20025;-89
2022/09/23 00:44:39;;;;;;;12.65;9.02;;;10.10;99.90;;;;;;6149226;23;20021;-88
2022/09/23 00:47:13;;;;;;;12.77;8.77;;;10.10;99.90;;;;;;6195240;23;20048;-87
2022/09/23 00:49:40;;;;;;;10.88;9.13;;;10.00;99.90;;;;;;6172349;23;20012;-87
2022/09/23 00:52:12;;;;;;;11.23;9.57;;;10.00;99.90;;;;;;6172226;23;20508;-88
2022/09/23 00:54:38;;;;;;;14.02;9.43;;;10.00;99.90;;;;;;6171892;23;20013;-89
2022/09/23 00:57:04;;;;;;;12.35;9.40;;;10.00;99.90;;;;;;6171761;23;20025;-87
2022/09/23 00:59:31;;;;;;;11.13;9.60;;;9.90;99.90;;;;;;6196003;23;20021;-88
2022/09/23 01:01:59;;;;;;;12.35;9.02;;;10.00;99.90;;;;;;6170082;23;20048;-89
2022/09/23 01:04:27;;;;;;;11.52;9.40;;;10.00;99.90;;;;;;6149801;23;20017;-88
2022/09/23 01:06:53;;;;;;;13.05;9.82;;;10.00;99.90;;;;;;6201418;23;20515;-88
2022/09/23 01:09:20;;;;;;;12.23;9.95;;;9.90;99.90;;;;;;6177086;23;20021;-88
2022/09/23 01:11:52;;;;;;;12.13;9.13;;;9.90;99.90;;;;;;6175154;23;20021;-89
2022/09/23 01:14:55;;;;;;;11.38;9.35;;;9.90;99.90;;;;;;6198325;23;20021;-88
2022/09/23 01:17:39;;;;;;;10.45;9.07;;;10.00;99.90;;;;;;6193237;23;20021;-89
2022/09/23 01:20:29;;;;;;;11.15;9.38;;;9.90;99.90;;;;;;6169717;23;20013;-89
2022/09/23 01:23:28;;;;;;;11.65;9.00;;;9.90;99.90;;;;;;6168139;23;20021;-88
2022/09/23 01:25:56;;;;;;;9.90;8.90;;;9.90;99.90;;;;;;6166377;23;20542;-88
2022/09/23 01:29:01;;;;;;;14.50;9.98;;;9.90;99.90;;;;;;6166996;23;20237;-89
2022/09/23 01:31:36;;;;;;;;;;;9.90;99.90;;;;;;6166897;23;20096;-88
2022/09/23 01:34:23;;;;;;;10.55;9.45;;;9.80;99.90;;;;;;6191169;23;19917;-88
2022/09/23 01:37:08;;;;;;;15.65;8.88;;;9.80;99.90;;;;;;6166415;23;20023;-89
2022/09/23 01:39:43;;;;;;;10.95;9.13;;;9.80;99.90;;;;;;6167623;23;20493;-88
2022/09/23 01:42:34;;;;;;;10.65;9.27;;;9.80;99.90;;;;;;6190670;23;20017;-88
2022/09/23 01:45:07;;;;;;;11.05;9.02;;;9.80;99.90;;;;;;6191807;23;20048;-89
2022/09/23 01:47:41;;;;;;;11.23;8.93;;;9.80;99.90;;;;;;6165693;23;20045;-87
2022/09/23 01:53:03;;;;;;;;;;;9.70;99.90;;;;;;6193372;23;19916;-88
2022/09/23 01:55:30;;;;;;;;;;;9.70;99.90;;;;;;6190801;23;19927;-88
2022/09/23 01:57:59;;;;;;;;;;;9.60;99.90;;;;;;6192332;23;19916;-88
2022/09/23 02:00:28;;;;;;;;;;;9.60;99.90;;;;;;6191209;23;19944;-88
2022/09/23 02:03:00;;;;;;;;;;;9.60;99.90;;;;;;6191958;23;19920;-88
2022/09/23 02:05:31;;;;;;;;;;;9.60;99.90;;;;;;6192556;23;19920;-88
2022/09/23 02:07:59;;;;;;;;;;;9.60;99.90;;;;;;6166769;23;19916;-88
2022/09/23 02:10:40;;;;;;;;;;;9.60;99.90;;;;;;6201718;23;19912;-88
2022/09/23 02:13:08;;;;;;;;;;;9.60;99.90;;;;;;6183230;23;19935;-88
2022/09/23 02:15:39;;;;;;;;;;;9.60;99.90;;;;;;6197552;23;19951;-88
2022/09/23 02:18:13;;;;;;;;;;;9.60;99.90;;;;;;6167734;23;19916;-89
2022/09/23 02:20:39;;;;;;;;;;;9.60;99.90;;;;;;6167005;23;19922;-88
2022/09/23 02:23:07;;;;;;;;;;;9.60;99.90;;;;;;6194538;23;19916;-88
2022/09/23 02:25:47;;;;;;;;;;;9.50;99.90;;;;;;6192176;23;19972;-88
2022/09/23 02:28:31;;;;;;;;;;;9.50;99.90;;;;;;6168731;23;19955;-89
2022/09/23 02:31:06;;;;;;;;;;;9.50;99.90;;;;;;6191696;23;19946;-88
2022/09/23 02:33:35;;;;;;;;;;;9.50;99.90;;;;;;6167768;23;19916;-87
2022/09/23 02:36:07;;;;;;;;;;;9.40;99.90;;;;;;6168722;23;19923;-89
2022/09/23 02:38:38;;;;;;;;;;;9.40;99.90;;;;;;6167907;23;19916;-88
2022/09/23 02:41:23;;;;;;;;;;;9.30;99.90;;;;;;6167853;23;19920;-88
2022/09/23 02:43:49;;;;;;;;;;;9.30;99.90;;;;;;6192661;23;19923;-88
2022/09/23 02:46:15;;;;;;;;;;;9.30;99.90;;;;;;6167333;23;19917;-89
2022/09/23 02:49:01;;;;;;;;;;;9.30;99.90;;;;;;6195165;23;19916;-88
2022/09/23 02:51:27;;;;;;;;;;;9.20;99.90;;;;;;6172845;23;20381;-88
2022/09/23 02:53:56;;;;;;;;;;;9.20;99.90;;;;;;6193658;23;19916;-88
2022/09/23 02:56:23;;;;;;;;;;;9.10;99.90;;;;;;6193444;23;19999;-88
2022/09/23 02:58:50;;;;;;;;;;;9.10;99.90;;;;;;6193864;23;20350;-88
2022/09/23 03:01:17;;;;;;;;;;;9.10;99.90;;;;;;6192153;23;19944;-88
2022/09/23 03:04:12;;;;;;;;;;;9.10;99.90;;;;;;6168353;23;19966;-87
2022/09/23 03:06:44;;;;;;;;;;;9.10;99.90;;;;;;6143902;23;19916;-88
2022/09/23 03:09:16;;;;;;;;;;;9.00;99.90;;;;;;6168888;23;19916;-86
2022/09/23 03:11:45;;;;;;;;;;;9.00;99.90;;;;;;6168657;23;20002;-87
2022/09/23 03:14:18;;;;;;;;;;;9.00;99.90;;;;;;6194982;23;19962;-86
2022/09/23 03:16:49;;;;;;;;;;;8.90;99.90;;;;;;6198390;23;19947;-87
2022/09/23 03:19:17;;;;;;;;;;;8.90;99.90;;;;;;6184806;23;19912;-87
2022/09/23 03:21:43;;;;;;;;;;;8.90;99.90;;;;;;6203342;23;19947;-87
2022/09/23 03:24:13;;;;;;;;;;;8.80;99.90;;;;;;6168769;23;19954;-88
2022/09/23 03:26:39;;;;;;;;;;;8.80;99.90;;;;;;6193537;23;19924;-86
2022/09/23 03:29:10;;;;;;;;;;;8.70;99.90;;;;;;6143625;23;19927;-87
2022/09/23 03:31:37;;;;;;;;;;;8.70;99.90;;;;;;6167795;23;20328;-87
2022/09/23 03:34:05;;;;;;;;;;;8.70;99.90;;;;;;6144272;23;19916;-88
2022/09/23 03:36:50;;;;;;;;;;;8.70;99.90;;;;;;6169095;23;19951;-87
2022/09/23 03:39:25;;;;;;;;;;;8.70;99.90;;;;;;6193533;23;19927;-87
2022/09/23 03:41:51;;;;;;;;;;;8.70;99.90;;;;;;6167781;23;19940;-87
2022/09/23 03:44:18;;;;;;;;;;;8.70;99.90;;;;;;6169469;23;19923;-87
2022/09/23 03:46:48;;;;;;;;;;;8.60;99.90;;;;;;6141864;23;19923;-87
2022/09/23 03:49:16;;;;;;;;;;;8.60;99.90;;;;;;6145804;23;19920;-87
2022/09/23 03:51:41;;;;;;;;;;;8.60;99.90;;;;;;6167582;23;19916;-87
2022/09/23 03:54:07;;;;;;;;;;;8.60;99.90;;;;;;6192963;23;19923;-87
2022/09/23 03:56:32;;;;;;;;;;;8.50;99.90;;;;;;6168047;23;19923;-87
2022/09/23 03:58:58;;;;;;;;;;;8.50;99.90;;;;;;6168042;23;19916;-87
2022/09/23 04:01:23;;;;;;;;;;;8.50;99.90;;;;;;6192006;23;19920;-87
2022/09/23 04:03:50;;;;;;;;;;;8.50;99.90;;;;;;6142933;23;20397;-87
2022/09/23 04:06:16;;;;;;;;;;;8.50;99.90;;;;;;6169099;23;20409;-87
2022/09/23 04:08:41;;;;;;;;;;;8.40;99.90;;;;;;6168326;23;19923;-87
2022/09/23 04:11:07;;;;;;;;;;;8.40;99.90;;;;;;6168328;23;19916;-87
2022/09/23 04:13:33;;;;;;;;;;;8.40;99.90;;;;;;6143244;23;19990;-87
2022/09/23 04:15:58;;;;;;;;;;;8.40;99.90;;;;;;6191239;23;19948;-87
2022/09/23 04:18:24;;;;;;;;;;;8.40;99.90;;;;;;6193825;23;19916;-87
2022/09/23 04:20:50;;;;;;;;;;;8.40;99.90;;;;;;6167174;23;19927;-87
2022/09/23 04:23:15;;;;;;;;;;;8.30;99.90;;;;;;6145077;23;20485;-87
2022/09/23 04:25:47;;;;;;;;;;;8.30;99.90;;;;;;6178937;23;19916;-87
2022/09/23 04:28:13;;;;;;;;;;;8.30;99.90;;;;;;6206861;23;19918;-87
2022/09/23 04:30:41;;;;;;;;;;;8.30;99.90;;;;;;6170632;23;19916;-87
2022/09/23 04:33:06;;;;;;;;;;;8.20;99.90;;;;;;6143781;23;19956;-88
2022/09/23 04:35:32;;;;;;;;;;;8.20;99.90;;;;;;6143821;23;19931;-88
2022/09/23 04:37:58;;;;;;;;;;;8.20;99.90;;;;;;6143085;23;19916;-88
2022/09/23 04:40:23;;;;;;;;;;;8.20;99.90;;;;;;6169214;23;20250;-87
2022/09/23 04:42:49;;;;;;;;;;;8.20;99.90;;;;;;6192561;23;19991;-86
2022/09/23 04:45:14;;;;;;;;;;;8.10;99.90;;;;;;6142829;23;19920;-87
2022/09/23 04:47:40;;;;;;;;;;;8.20;99.90;;;;;;6167309;23;19926;-88
2022/09/23 04:50:06;;;;;;;;;;;8.10;99.90;;;;;;6167926;23;20259;-87
2022/09/23 04:52:31;;;;;;;;;;;8.10;99.90;;;;;;6192856;23;19923;-87
2022/09/23 04:54:57;;;;;;;;;;;8.20;99.90;;;;;;6166596;23;20251;-87
2022/09/23 04:57:23;;;;;;;;;;;8.20;99.90;;;;;;6168381;23;19916;-87
2022/09/23 04:59:49;;;;;;;;;;;8.10;99.90;;;;;;6167722;23;19917;-86
2022/09/23 05:02:15;;;;;;;;;;;8.10;99.90;;;;;;6142242;23;19920;-87
2022/09/23 05:04:41;;;;;;;;;;;8.20;99.90;;;;;;6168078;23;19982;-86
2022/09/23 05:07:06;;;;;;;;;;;8.20;99.90;;;;;;6191445;23;19916;-88
2022/09/23 05:09:32;;;;;;;;;;;8.10;99.90;;;;;;6142978;23;20010;-87
2022/09/23 05:11:58;;;;;;;;;;;8.10;99.90;;;;;;6167187;23;19943;-87
2022/09/23 05:14:23;;;;;;;;;;;8.10;99.90;;;;;;6143842;23;19920;-87
2022/09/23 05:16:49;;;;;;;;;;;8.10;99.90;;;;;;6140556;23;19956;-87
2022/09/23 05:19:14;;;;;;;;;;;8.20;99.90;;;;;;6193191;23;19951;-87
2022/09/23 05:21:40;;;;;;;;;;;8.20;99.90;;;;;;6142220;23;19916;-87
2022/09/23 05:24:06;;;;;;;;;;;8.20;99.90;;;;;;6142884;23;20361;-88
2022/09/23 05:26:32;;;;;;;;;;;8.20;99.90;;;;;;6188068;23;19916;-86
2022/09/23 05:28:58;;;;;;;;;;;8.20;99.90;;;;;;6167387;23;19920;-88
2022/09/23 05:31:24;;;;;;;;;;;8.20;99.90;;;;;;6192666;23;19926;-87
2022/09/23 05:33:51;;;;;;;;;;;8.10;99.90;;;;;;6207683;23;19951;-87
2022/09/23 05:36:17;;;;;;;;;;;8.10;99.90;;;;;;6179590;23;20006;-87
2022/09/23 05:38:43;;;;;;;;;;;8.10;99.90;;;;;;6194399;23;20447;-87
2022/09/23 05:41:12;;;;;;;;;;;8.10;99.90;;;;;;6192674;23;19916;-88
2022/09/23 05:43:38;;;;;;;;;;;8.10;99.90;;;;;;6167412;23;19916;-87
2022/09/23 05:46:06;;;;;;;;;;;8.20;99.90;;;;;;6190435;23;19927;-87
2022/09/23 05:48:33;;;;;;;;;;;8.20;99.90;;;;;;6192412;23;19916;-87
2022/09/23 05:50:59;;;;;;;;;;;8.20;99.90;;;;;;6167064;23;20397;-87
2022/09/23 05:53:25;;;;;;;;;;;8.20;99.90;;;;;;6168481;23;19916;-88
2022/09/23 05:55:50;;;;;;;;;;;8.30;99.90;;;;;;6191465;23;19962;-87
2022/09/23 05:58:16;;;;;;;;;;;8.30;99.90;;;;;;6167842;23;19955;-87
2022/09/23 06:00:42;;;;;;;;;;;8.30;99.90;;;;;;6165336;23;19916;-87
2022/09/23 06:03:12;;;;;;;;;;;8.30;99.90;;;;;;6167096;23;19917;-87
2022/09/23 06:05:38;;;;;;;;;;;8.30;99.90;;;;;;6167571;23;19916;-86
2022/09/23 06:08:03;;;;;;;;;;;8.40;99.90;;;;;;6192291;23;20043;-87
2022/09/23 06:10:29;;;;;;;;;;;8.40;99.90;;;;;;6164710;23;19920;-86
2022/09/23 06:12:55;;;;;;;;;;;8.40;99.90;;;;;;6131856;23;19948;-87
2022/09/23 06:15:21;;;;;;;;;;;8.50;99.90;;;;;;6134394;23;19920;-88
2022/09/23 06:17:48;;;;;;;;;;;8.50;99.90;;;;;;6159458;23;19920;-85
2022/09/23 06:20:14;;;;;;;;;;;8.60;99.90;;;;;;6161588;23;19920;-86
2022/09/23 06:22:39;;;;;;;;;;;8.60;99.90;;;;;;6161238;23;19991;-85
2022/09/23 06:25:05;;;;;;;;;;;8.70;99.90;;;;;;6160665;23;19916;-85
2022/09/23 06:27:31;;;;;;;;;;;8.80;99.90;;;;;;6186087;23;19917;-85
2022/09/23 06:29:56;;;;;;;;;;;8.80;99.90;;;;;;6160814;23;19916;-86
2022/09/23 06:32:22;;;;;;;;;;;8.80;99.90;;;;;;6161226;23;19920;-85
2022/09/23 06:34:47;;;;;;;;;;;8.90;99.90;;;;;;6160962;23;19920;-85
2022/09/23 06:37:13;;;;;;;;;;;8.90;99.90;;;;;;6161857;23;20455;-86
2022/09/23 06:39:39;;;;;;;;;;;9.00;99.90;;;;;;6165520;23;19923;-86
2022/09/23 06:42:05;;;;;;;;;;;9.00;99.90;;;;;;6166185;23;19920;-85
2022/09/23 06:44:31;;;;;;;;;;;9.00;99.90;;;;;;6165143;23;20002;-85
2022/09/23 06:46:56;;;;;;;;;;;9.10;99.90;;;;;;6184418;23;20290;-85
2022/09/23 06:49:22;;;;;;;;;;;9.20;99.90;;;;;;6161952;23;19917;-85
2022/09/23 06:51:47;;;;;;;;;;;9.30;99.90;;;;;;6136123;23;19958;-85
2022/09/23 06:54:13;;;;;;;;;;;9.40;99.90;;;;;;6136869;23;19973;-84
2022/09/23 06:56:38;;;;;;;;;;;9.40;99.90;;;;;;6135937;23;19955;-85
2022/09/23 06:59:05;;;;;;;;;;;9.50;99.90;;;;;;6161581;23;19916;-86
2022/09/23 07:01:30;;;;;;;;;;;9.60;99.90;;;;;;6159415;23;19990;-86
2022/09/23 07:03:56;;;;;;;;;;;9.60;99.90;;;;;;6161100;23;20310;-85
2022/09/23 07:06:21;;;;;;;;;;;9.70;99.90;;;;;;6160879;23;19944;-86
2022/09/23 07:08:47;;;;;;;;;;;9.80;99.90;;;;;;6158537;23;19927;-86
2022/09/23 07:11:13;;;;;;;;;;;9.90;99.90;;;;;;6159606;23;19943;-85
2022/09/23 07:13:40;;;;;;;;;;;9.90;99.90;;;;;;6185064;23;19920;-85
2022/09/23 07:16:05;;;;;;;;;;;10.00;99.90;;;;;;6154270;23;19920;-85
2022/09/23 07:18:32;;;;;;;;;;;10.00;99.90;;;;;;6136257;23;19924;-85
2022/09/23 07:21:26;;;;;;;;;;;10.10;99.90;;;;;;6160290;23;19927;-86
2022/09/23 07:23:52;;;;;;;;;;;10.10;99.90;;;;;;6154536;23;19920;-87
2022/09/23 07:26:18;;;;;;;;;;;10.20;99.90;;;;;;6134494;23;19974;-86
2022/09/23 07:28:44;;;;;;;;;;;10.30;99.90;;;;;;6137171;23;19947;-86
2022/09/23 07:31:11;;;;;;;;;;;10.30;99.90;;;;;;6156857;23;19920;-85
2022/09/23 07:33:38;;;;;;;;;;;10.30;99.90;;;;;;6160725;23;19974;-86
2022/09/23 07:36:08;;;;;;;;;;;10.40;99.90;;;;;;6184747;23;19954;-86
2022/09/23 07:38:34;;;;;;;;;;;10.40;99.90;;;;;;6185442;23;19920;-86
2022/09/23 07:41:07;;;;;;;;;;;10.40;99.90;;;;;;6132965;23;19987;-85
2022/09/23 07:43:37;;;;;;;;;;;10.50;99.90;;;;;;6160396;23;19970;-86
2022/09/23 07:46:04;;;;;;;;;;;10.50;99.90;;;;;;6160117;23;19967;-87
2022/09/23 07:48:30;;;;;;;;;;;10.60;99.90;;;;;;6199265;23;19931;-86
2022/09/23 07:50:56;;;;;;;;;;;10.70;99.90;;;;;;6169547;23;19920;-86
2022/09/23 07:53:22;;;;;;;;;;;10.70;99.90;;;;;;6186946;23;19943;-86
2022/09/23 07:55:52;;;;;;;;;;;10.80;99.90;;;;;;6183273;23;19920;-85
2022/09/23 07:58:20;;;;;;;;;;;10.80;99.90;;;;;;6158344;23;20397;-86
2022/09/23 08:00:46;;;;;;;;;;;11.30;99.90;;;;;;6177097;23;20369;-86
2022/09/23 08:03:13;;;;;;;;;;;11.00;99.90;;;;;;6134167;23;19959;-86
2022/09/23 08:05:39;;;;;;;;;;;11.00;99.90;;;;;;6157442;23;19924;-86
2022/09/23 08:08:06;;;;;;;;;;;11.10;99.90;;;;;;6156821;23;19931;-86
2022/09/23 08:10:32;;;;;;;;;;;11.20;99.90;;;;;;6157351;23;20504;-87
2022/09/23 08:12:58;;;;;;;;;;;11.30;99.90;;;;;;6180581;23;19916;-87
2022/09/23 08:15:25;;;;;;;;;;;11.40;99.90;;;;;;6133514;23;19924;-86
2022/09/23 08:17:51;;;;;;;;;;;11.50;99.90;;;;;;6182364;23;19916;-86
2022/09/23 08:20:43;;;;;;;;;;;11.50;99.90;;;;;;6134696;23;19956;-86
2022/09/23 08:23:02;;;;;;;;;;;11.60;99.90;;;;;;6163713;23;19916;-88
2022/09/23 08:25:28;;;;;;;;;;;11.70;99.90;;;;;;6157110;23;19920;-87
2022/09/23 08:27:54;;;;;;;;;;;11.80;99.90;;;;;;6183710;23;20333;-87
2022/09/23 08:30:19;;;;;;;;;;;11.90;99.90;;;;;;6132473;23;19920;-88
2022/09/23 08:32:48;;;;;;;;;;;12.00;99.90;;;;;;6133125;23;19920;-89
2022/09/23 08:35:14;;;;;;;;;;;12.00;99.90;;;;;;6158296;23;19974;-86
2022/09/23 08:37:39;;;;;;;;;;;12.10;99.90;;;;;;6159235;23;19920;-85
2022/09/23 08:40:05;;;;;;;;;;;12.20;99.90;;;;;;6133717;23;19920;-86
2022/09/23 08:42:32;;;;;;;;;;;12.20;99.90;;;;;;6158793;23;19935;-86
2022/09/23 08:45:00;;;;;;;;;;;12.30;99.90;;;;;;6158935;23;19916;-87
2022/09/23 08:47:34;;;;;;;;;;;12.40;99.90;;;;;;6182636;23;19920;-86
2022/09/23 08:50:17;;;;;;;;;;;12.40;99.90;;;;;;6185300;23;19947;-87
2022/09/23 08:52:57;;;;;;;;;;;12.50;99.90;;;;;;6159221;23;20230;-87
2022/09/23 08:55:33;;;;;;;;;;;12.70;99.90;;;;;;6186119;23;19920;-88
2022/09/23 08:58:18;;;;;;;;;;;12.70;99.90;;;;;;6158370;23;20121;-89
2022/09/23 09:00:46;;;;;;;;;;;12.80;99.90;;;;;;6131935;23;19942;-89
2022/09/23 09:03:18;;;;;;;;;;;12.90;99.90;;;;;;6135240;23;19921;-90
2022/09/23 09:05:44;;;;;;;;;;;13.00;99.90;;;;;;6132711;23;19931;-89
2022/09/23 09:08:10;;;;;;;;;;;13.10;99.90;;;;;;6110588;23;19924;-88
2022/09/23 09:10:40;;;;;;;;;;;13.10;99.90;;;;;;6134045;23;19917;-90
2022/09/23 09:13:09;;;;;;;;;;;13.20;99.90;;;;;;6158231;23;19927;-90
2022/09/23 09:15:49;;;;;;;;;;;13.30;99.90;;;;;;6133121;23;19979;-89
2022/09/23 09:18:18;;;;;;;;;;;13.20;99.90;;;;;;6131641;23;19932;-90
2022/09/23 09:20:58;;;;;;;;;;;13.40;99.90;;;;;;6134500;23;19920;-90
2022/09/23 09:23:37;;;;;;;;;;;13.50;99.90;;;;;;6134218;23;19921;-90
2022/09/23 09:26:04;;;;;;;;;;;13.50;99.90;;;;;;6147348;23;19940;-90
2022/09/23 09:28:37;;;;;;;;;;;13.60;99.90;;;;;;6151459;23;19925;-90
2022/09/23 09:31:23;;;;;;;;;;;13.60;99.90;;;;;;6173311;23;19936;-90
2022/09/23 09:33:49;;;;;;;;;;;13.70;99.90;;;;;;6119610;23;20116;-91
2022/09/23 09:36:18;;;;;;;;;;;13.70;99.90;;;;;;6133901;23;20443;-90
2022/09/23 09:38:44;;;;;;;;;;;13.80;99.90;;;;;;6157118;23;19956;-90
2022/09/23 09:41:12;;;;;;;;;;;13.80;99.90;;;;;;6109875;23;19927;-88
2022/09/23 09:43:39;;;;;;;;;;;13.90;99.90;;;;;;6132976;23;19920;-91
2022/09/23 09:46:15;;;;;;;;;;;13.90;99.90;;;;;;6136097;23;19917;-90
2022/09/23 09:48:52;;;;;;;;;;;13.90;99.90;;;;;;6133911;23;19990;-90
2022/09/23 09:51:22;;;;;;;;;;;13.90;99.90;;;;;;6133572;23;19999;-91
2022/09/23 09:53:50;;;;;;;;;;;13.90;99.90;;;;;;6134996;23;19967;-91
2022/09/23 09:56:17;;;;;;;;;;;14.00;99.90;;;;;;6132569;23;19943;-89
2022/09/23 09:58:48;;;;;;;;;;;14.00;99.90;;;;;;6134406;23;19920;-92
2022/09/23 10:01:24;;;;;;;;;;;14.00;99.90;;;;;;6131110;23;19931;-90
2022/09/23 10:03:52;;;;;;;;;;;14.00;99.90;;;;;;6134296;23;19947;-91
2022/09/23 10:06:28;;;;;;;;;;;14.10;99.90;;;;;;6133645;23;19940;-90
2022/09/23 10:09:00;;;;;;;;;;;14.10;99.90;;;;;;6133084;23;19921;-93
2022/09/23 10:11:26;;;;;;;;;;;14.10;99.90;;;;;;6168215;23;19924;-91
2022/09/23 10:14:11;;;;;;;;;;;14.20;99.90;;;;;;6139009;23;19927;-90
2022/09/23 10:16:40;;;;;;;;;;;14.20;99.90;;;;;;6163502;23;19924;-90
2022/09/23 10:19:32;;;;;;;;;;;14.30;99.90;;;;;;6139493;23;19920;-93
2022/09/23 10:21:59;;;;;;;;;;;14.30;99.90;;;;;;6133973;23;20318;-89
2022/09/23 10:24:28;;;;;;;;;;;14.40;99.90;;;;;;6164575;23;19964;-90
2022/09/23 10:26:59;;;;;;;;;;;14.40;99.90;;;;;;6135015;23;19983;-91
2022/09/23 10:29:35;;;;;;;;;;;14.40;99.90;;;;;;6142435;23;19924;-90
2022/09/23 10:32:17;;;;;;;;;;;14.40;99.90;;;;;;6167510;23;19921;-90
2022/09/23 10:34:45;;;;;;;;;;;14.40;99.90;;;;;;6146594;23;19913;-91
2022/09/23 10:37:22;;;;;;;;;;;14.50;99.90;;;;;;6137836;23;19917;-93
2022/09/23 10:48:09;;;;;;;;;;;14.60;99.90;;;;;;6170473;23;19932;-92
2022/09/23 10:50:48;;;;;;;;;;;14.70;99.90;;;;;;6147371;23;19912;-92
2022/09/23 10:53:22;;;;;;;;;;;14.70;99.90;;;;;;6172695;23;19944;-91
2022/09/23 10:56:03;;;;;;;;;;;14.80;99.90;;;;;;6153038;23;19932;-92
2022/09/23 10:58:49;;;;;;;;;;;14.80;99.90;;;;;;6155575;23;19912;-91
2022/09/23 11:01:21;;;;;;;;;;;14.90;99.90;;;;;;6171512;23;19983;-92
2022/09/23 11:03:57;;;;;;;;;;;15.00;99.90;;;;;;6147790;23;19944;-92
2022/09/23 11:06:50;;;;;;;;;;;15.00;99.90;;;;;;6150436;23;19940;-91
2022/09/23 11:09:29;;;;;;;;;;;15.10;99.90;;;;;;6148610;23;19976;-91
2022/09/23 11:12:01;;;;;;;;;;;15.20;99.90;;;;;;6175725;23;19924;-90
2022/09/23 11:14:44;;;;;;;;;;;15.20;99.90;;;;;;6148334;23;19952;-90
2022/09/23 11:17:28;;;;;;;;;;;15.30;99.90;;;;;;6174102;23;19936;-91
2022/09/23 11:20:13;;;;;;;;;;;15.30;99.90;;;;;;6175401;23;19912;-90
2022/09/23 11:22:52;;;;;;;;;;;15.40;99.90;;;;;;6172731;23;19920;-92
2022/09/23 11:25:30;;;;;;;;;;;15.40;99.90;;;;;;6150154;23;20547;-91
2022/09/23 11:28:11;;;;;;;;;;;15.50;99.90;;;;;;6151085;23;19928;-92
2022/09/23 11:30:45;;;;;;;;;;;15.60;99.90;;;;;;6148692;23;19976;-92
2022/09/23 11:33:23;;;;;;;;;;;15.50;99.90;;;;;;6148596;23;19920;-91
2022/09/23 11:35:51;;;;;;;;;;;15.50;99.90;;;;;;6144054;23;19921;-91
2022/09/23 11:38:24;;;;;;;;;;;15.50;99.90;;;;;;6147350;23;19962;-92
2022/09/23 11:41:09;;;;;;;;;;;15.50;99.90;;;;;;6146277;23;19927;-90
2022/09/23 11:43:36;;;;;;;;;;;15.50;99.90;;;;;;6167971;23;19912;-91
2022/09/23 11:46:13;;;;;;;;;;;15.50;99.90;;;;;;6167969;23;19940;-92
2022/09/23 11:48:48;;;;;;;;;;;15.50;99.90;;;;;;6145124;23;19920;-91
2022/09/23 11:51:15;;;;;;;;;;;15.50;99.90;;;;;;6145438;23;19927;-89
2022/09/23 11:53:45;;;;;;;;;;;15.50;99.90;;;;;;6142444;23;19916;-90
2022/09/23 11:56:22;;;;;;;;;;;15.50;99.90;;;;;;6143589;23;19921;-92
2022/09/23 11:58:54;;;;;;;;;;;15.50;99.90;;;;;;6168504;23;19930;-91
2022/09/23 12:01:30;;;;;;;;;;;15.50;99.90;;;;;;6139996;23;19951;-91
2022/09/23 12:04:04;;;;;;;;;;;15.50;99.90;;;;;;6144942;23;19920;-92
2022/09/23 12:06:33;;;;;;;;;;;15.50;99.90;;;;;;6143876;23;19935;-92
2022/09/23 12:09:01;;;;;;;;;;;15.60;99.90;;;;;;6142408;23;19917;-91
2022/09/23 12:11:47;;;;;;;;;;;15.60;99.90;;;;;;6141312;23;19932;-91
2022/09/23 12:14:31;;;;;;;;;;;15.60;99.90;;;;;;6141483;23;19940;-91
2022/09/23 12:17:09;;;;;;;;;;;15.60;99.90;;;;;;6142681;23;19921;-91
2022/09/23 12:19:46;;;;;;;;;;;15.60;99.90;;;;;;6143112;23;19920;-91
2022/09/23 12:22:23;;;;;;;;;;;15.70;99.90;;;;;;6142669;23;19920;-92
2022/09/23 12:24:50;;;;;;;;;;;15.70;99.90;;;;;;6172121;23;19947;-92
2022/09/23 12:27:35;;;;;;;;;;;15.70;99.90;;;;;;6147946;23;19946;-91
2022/09/23 12:30:03;;;;;;;;;;;15.70;99.90;;;;;;6149791;23;19912;-92
2022/09/23 12:32:29;;;;;;;;;;;15.70;99.90;;;;;;6145662;23;19931;-90
2022/09/23 12:34:55;;;;;;;;;;;15.80;99.90;;;;;;6116652;23;19916;-90
2022/09/23 12:37:26;;;;;;;;;;;15.80;99.90;;;;;;6116870;23;19923;-91
2022/09/23 12:39:52;;;;;;;;;;;15.90;99.90;;;;;;6140461;23;19964;-90
2022/09/23 12:42:19;;;;;;;;;;;16.00;99.90;;;;;;6139283;23;20397;-91
2022/09/23 12:44:46;;;;;;;;;;;16.10;99.90;;;;;;6135343;23;20532;-91
2022/09/23 12:47:23;;;;;;;;;;;16.20;99.90;;;;;;6134627;23;19952;-91
2022/09/23 12:49:49;;;;;;;;;;;16.20;99.90;;;;;;6137420;23;19931;-92
2022/09/23 12:52:15;;;;;;;;;;;16.30;99.90;;;;;;6110785;23;20331;-91
2022/09/23 12:54:48;;;;;;;;;;;16.20;99.90;;;;;;6160986;23;19961;-91
2022/09/23 12:57:13;;;;;;;;;;;16.20;99.90;;;;;;6158650;23;19917;-92
2022/09/23 13:00:12;;;;;;;;;;;16.30;99.90;;;;;;6111148;23;19921;-90
2022/09/23 13:02:39;;;;;;;;;;;16.30;99.90;;;;;;6104691;23;19959;-90
2022/09/23 13:08:05;;;;;;;;;;;16.40;99.90;;;;;;6135660;23;19921;-90
2022/09/23 13:10:53;;;;;;;;;;;16.30;99.90;;;;;;6109699;23;19927;-90
2022/09/23 13:13:24;;;;;;;;;;;16.30;99.90;;;;;;6110139;23;19921;-89
2022/09/23 13:15:50;;;;;;;;;;;16.30;99.90;;;;;;6108979;23;19934;-90
2022/09/23 13:18:19;;;;;;;;;;;16.20;99.90;;;;;;6085543;23;19923;-92
2022/09/23 13:20:45;;;;;;;;;;;16.20;99.90;;;;;;6111429;23;19963;-92
2022/09/23 13:23:16;;;;;;;;;;;16.20;99.90;;;;;;6086720;23;19983;-91
2022/09/23 13:25:42;;;;;;;;;;;16.10;99.90;;;;;;6110295;23;19963;-92
2022/09/23 13:28:37;;;;;;;;;;;16.00;99.90;;;;;;6110257;23;19916;-90
2022/09/23 13:31:12;;;;;;;;;;;16.00;99.90;;;;;;6113607;23;19920;-91
2022/09/23 13:33:43;;;;;;;;;;;15.90;99.90;;;;;;6110729;23;19941;-90
2022/09/23 13:36:10;;;;;;;;;;;15.80;99.90;;;;;;6110191;23;19917;-91
2022/09/23 13:38:36;;;;;;;;;;;15.70;99.90;;;;;;6110492;23;19921;-92
2022/09/23 13:41:01;;;;;;;;;;;15.60;99.90;;;;;;6086389;23;19975;-91
2022/09/23 13:43:33;;;;;;;;;;;15.50;99.90;;;;;;6109246;23;19920;-92
2022/09/23 13:45:59;;;;;;;;;;;15.40;99.90;;;;;;6110251;23;19920;-92
2022/09/23 13:48:27;;;;;;;;;;;15.30;99.90;;;;;;6084665;23;19917;-93
2022/09/23 13:50:52;;;;;;;;;;;15.20;99.90;;;;;;6086882;23;19960;-92
2022/09/23 13:53:26;;;;;;;;;;;15.10;99.90;;;;;;6086106;23;19920;-92
2022/09/23 13:56:03;;;;;;;;;;;15.00;99.90;;;;;;6113881;23;19920;-93
2022/09/23 13:58:30;;;;;;;;;;;15.00;99.90;;;;;;6137555;23;19940;-94
2022/09/23 14:00:55;;;;;;;;;;;14.90;99.90;;;;;;6120781;23;19917;-92
2022/09/23 14:03:39;;;;;;;;;;;14.90;99.90;;;;;;6115655;23;19923;-93
2022/09/23 14:06:08;;;;;;;;;;;14.90;99.90;;;;;;6154239;23;19944;-93
2022/09/23 14:08:34;;;;;;;;;;;14.90;99.90;;;;;;6138713;23;19930;-92
2022/09/23 14:11:00;;;;;;;;;;;14.90;99.90;;;;;;6188153;23;19934;-92
2022/09/23 14:13:31;;;;;;;;;;;14.90;99.90;;;;;;6162743;23;19920;-92
2022/09/23 14:15:58;;;;;;;;;;;14.90;99.90;;;;;;6187719;23;19927;-93
2022/09/23 14:18:29;;;;;;;;;;;14.90;99.90;;;;;;6163001;23;19943;-92
2022/09/23 14:20:54;;;;;;;;;;;14.90;99.90;;;;;;6164289;23;19916;-92
2022/09/23 14:23:20;;;;;;;;;;;14.90;99.90;;;;;;6188294;23;19955;-92
2022/09/23 14:25:46;;;;;;;;;;;14.90;99.90;;;;;;6163768;23;19948;-92
2022/09/23 14:28:16;;;;;;;;;;;14.90;99.90;;;;;;6164161;23;20011;-92
2022/09/23 14:30:43;;;;;;;;;;;14.90;99.90;;;;;;6163097;23;19943;-93
2022/09/23 14:33:10;;;;;;;;;;;14.90;99.90;;;;;;6189702;23;19927;-93
2022/09/23 14:35:41;;;;;;;;;;;14.90;99.90;;;;;;6162101;23;20339;-93
2022/09/23 14:40:53;;;;;;;;;;;14.90;99.90;;;;;;6189957;23;19936;-93
2022/09/23 14:43:28;;;;;;;;;;;14.90;99.90;;;;;;6165664;23;19920;-93